Latest Weather Observations for Camden

IDN60901

Issued at 9:51 am EDT Thursday 30 March 2017 (issued every 10 minutes, with the page automatically refreshed every 10 minutes)

About weather observations | Map of Sydney area stations | Latest observations for Sydney area | Other Formats
Station Details ID: 068192 Name: CAMDEN AIRPORT AWS Lat: -34.04 Lon: 150.69 Height: 73.9 m
Data from the previous 72 hours. | See also: Recent months at Camden
Date/Time
EDT
Temp
°C
App
Temp
°C
Dew
Point
°C
Rel
Hum
%
Delta-T
°C
Wind Press
QNH
hPa
Press
MSL
hPa
Rain since
9am
mm
Dir  Spd
km/h
Gust
km/h
Spd
kts
Gust
kts
30/09:30am 22.1 25.2 22.1 100 0.0 S 9 13 5 7 1008.7 1008.4 0.8
30/09:22am 22.0 24.6 22.0 100 0.0 S 11 13 6 7 1008.5 1008.2 0.4
30/09:00am 22.0 25.0 22.0 100 0.0 S 9 11 5 6 1008.2 1007.9 0.8
30/08:30am 21.9 25.2 21.9 100 0.0 SSE 7 11 4 6 1007.5 1007.2 0.0
30/08:00am 21.5 26.0 21.5 100 0.0 CALM 0 0 0 0 1006.6 1006.3 0.0
30/07:30am 21.5 26.0 21.5 100 0.0 CALM 0 0 0 0 1006.2 1005.9 0.0
30/07:00am 21.5 26.0 21.5 100 0.0 CALM 0 0 0 0 1005.8 1005.5 0.0
30/06:30am 21.7 26.3 21.7 100 0.0 CALM 0 0 0 0 1005.3 1005.0 0.0
30/06:00am 21.7 25.9 21.7 100 0.0 NNE 2 7 1 4 1005.4 1005.1 0.0
30/05:30am 21.6 26.1 21.6 100 0.0 CALM 0 0 0 0 1005.2 1004.9 0.0
30/05:00am 21.3 25.7 21.3 100 0.0 CALM 0 0 0 0 1005.3 1005.0 0.0
30/04:30am 21.7 25.5 21.7 100 0.0 NE 4 11 2 6 1005.5 1005.2 0.0
30/04:00am 21.6 26.0 21.4 99 0.1 CALM 0 0 0 0 1005.9 1005.6 0.0
30/03:30am 21.9 26.6 21.9 100 0.0 CALM 0 0 0 0 1006.3 1006.0 0.0
30/03:00am 22.1 26.9 22.1 100 0.0 CALM 0 0 0 0 1006.4 1006.1 0.0
30/02:30am 22.4 27.3 22.4 100 0.0 CALM 0 0 0 0 1006.5 1006.2 0.0
30/02:00am 22.5 27.5 22.5 100 0.0 CALM 0 0 0 0 1006.8 1006.5 0.0
30/01:30am 22.3 27.1 22.1 99 0.1 CALM 0 0 0 0 1006.6 1006.3 0.0
30/01:00am 22.5 27.4 22.3 99 0.1 CALM 0 0 0 0 1006.8 1006.5 0.0
30/12:30am 22.9 28.0 22.7 99 0.1 CALM 0 0 0 0 1007.0 1006.7 0.0
30/12:00am 22.9 28.0 22.7 99 0.1 CALM 0 0 0 0 1007.1 1006.8 0.0
 
Date/Time
EDT
Temp
°C
App
Temp
°C
Dew
Point
°C
Rel
Hum
%
Delta-T
°C
Wind Press
QNH
hPa
Press
MSL
hPa
Rain since
9am
mm
Dir  Spd
km/h
Gust
km/h
Spd
kts
Gust
kts
29/11:30pm 22.8 27.9 22.6 99 0.1 CALM 0 0 0 0 1007.5 1007.2 0.0
29/11:00pm 22.9 28.0 22.6 98 0.2 CALM 0 0 0 0 1007.4 1007.1 0.0
29/10:31pm 23.3 28.4 22.6 96 0.5 CALM 0 0 0 0 1007.6 1007.3 0.0
29/10:30pm 23.2 28.2 22.5 96 0.5 CALM 0 0 0 0 1007.6 1007.3 0.0
29/10:09pm 23.5 28.7 22.8 96 0.5 CALM 0 0 0 0 1007.6 1007.3 0.0
29/10:00pm 23.5 28.6 22.7 95 0.5 CALM 0 0 0 0 1007.6 1007.3 0.0
29/09:42pm 23.8 29.0 22.8 94 0.7 CALM 0 0 0 0 1007.5 1007.2 0.0
29/09:30pm 24.2 29.6 23.2 94 0.7 CALM 0 0 0 0 1007.6 1007.3 0.0
29/09:00pm 24.7 30.1 23.3 92 1.0 CALM 0 0 0 0 1007.6 1007.3 0.0
29/08:30pm 25.1 30.4 23.0 88 1.4 CALM 0 0 0 0 1007.3 1007.0 0.0
29/08:00pm 25.4 30.6 22.9 86 1.7 CALM 0 0 0 0 1007.0 1006.7 0.0
29/07:30pm 27.0 32.1 22.6 77 3.0 CALM 0 0 0 0 1006.7 1006.4 0.0
29/07:00pm 27.8 32.9 22.7 74 3.5 CALM 0 0 0 0 1006.5 1006.2 0.0
29/06:30pm 28.9 34.1 22.9 70 4.1 CALM 0 0 0 0 1006.4 1006.1 0.0
29/06:00pm 30.9 36.3 23.3 64 5.3 CALM 0 0 0 0 1006.2 1005.9 0.0
29/05:30pm 30.6 35.6 22.5 62 5.5 CALM 0 0 0 0 1006.2 1005.9 0.0
29/05:00pm 30.8 35.3 22.9 62 5.4 WSW 4 9 2 5 1006.3 1006.0 0.0
29/04:30pm 30.8 35.5 22.7 62 5.5 WSW 2 7 1 4 1006.4 1006.1 0.0
29/04:00pm 30.3 34.5 22.5 63 5.3 SSW 4 9 2 5 1006.6 1006.3 0.0
29/03:30pm 29.7 33.8 22.2 64 5.1 SW 4 11 2 6 1007.0 1006.7 0.0
29/03:00pm 28.6 32.4 21.6 66 4.7 S 4 9 2 5 1007.4 1007.1 0.0
29/02:30pm 27.3 30.2 20.6 67 4.4 SSE 6 9 3 5 1007.9 1007.6 0.0
29/02:00pm 27.1 29.7 20.4 66 4.4 W 7 13 4 7 1008.7 1008.4 0.0
29/01:30pm 26.3 29.2 21.1 73 3.4 W 7 11 4 6 1009.4 1009.1 0.0
29/01:24pm 26.2 29.0 20.5 71 3.7 W 6 11 3 6 1009.5 1009.2 0.0
29/01:00pm 25.1 27.7 20.1 74 3.3 WSW 6 11 3 6 1010.0 1009.7 0.0
29/12:30pm 24.4 26.7 19.9 76 2.9 SW 7 11 4 6 1010.6 1010.4 0.0
29/12:00pm 23.8 27.1 19.9 79 2.5 WSW 2 7 1 4 1011.0 1010.8 0.0
29/11:30am 23.2 26.9 20.0 82 2.1 CALM 0 0 0 0 1011.3 1011.1 0.0
29/11:00am 22.8 26.7 20.3 86 1.6 CALM 0 0 0 0 1011.8 1011.6 0.0
29/10:30am 22.1 25.9 20.2 89 1.2 CALM 0 0 0 0 1012.0 1011.8 0.0
29/10:25am 22.1 26.0 20.4 90 1.1 CALM 0 0 0 0 1012.1 1011.9 0.0
29/10:00am 21.8 25.0 20.4 92 0.9 SSE 4 6 2 3 1012.2 1012.0 0.0
29/09:30am 21.3 25.4 20.8 97 0.3 CALM 0 0 0 0 1012.3 1012.1 0.0
29/09:00am 21.0 25.1 20.8 99 0.1 CALM 0 0 0 0 1012.4 1012.2 0.0
29/08:30am 20.8 24.8 20.6 99 0.1 CALM 0 0 0 0 1012.4 1012.2 0.0
29/08:00am 20.7 24.7 20.5 99 0.1 CALM 0 0 0 0 1012.3 1012.1 0.0
29/07:30am 20.6 24.4 20.1 97 0.3 CALM 0 0 0 0 1011.9 1011.7 0.0
29/07:00am 20.7 24.4 20.0 96 0.4 CALM 0 0 0 0 1011.8 1011.6 0.0
29/06:43am 20.6 24.3 19.9 96 0.4 CALM 0 0 0 0 1011.6 1011.4 0.0
29/06:30am 20.6 24.2 19.8 95 0.5 CALM 0 0 0 0 1011.5 1011.3 0.0
29/06:00am 20.6 24.2 19.8 95 0.5 CALM 0 0 0 0 1011.5 1011.3 0.0
29/05:30am 20.6 24.3 19.9 96 0.4 CALM 0 0 0 0 1011.5 1011.3 0.0
29/05:09am 20.6 24.3 19.9 96 0.4 CALM 0 0 0 0 1011.5 1011.3 0.0
29/05:06am 20.6 24.3 19.9 96 0.4 CALM 0 0 0 0 1011.5 1011.3 0.0
29/05:00am 20.6 24.3 19.9 96 0.4 CALM 0 0 0 0 1011.5 1011.3 0.0
29/04:30am 20.6 24.1 19.6 94 0.6 CALM 0 0 0 0 1011.6 1011.4 0.0
29/04:00am 20.5 24.1 19.7 95 0.5 CALM 0 0 0 0 1011.8 1011.6 0.0
29/03:30am 20.4 23.9 19.6 95 0.5 CALM 0 0 0 0 1012.0 1011.8 0.0
29/03:17am 20.4 23.9 19.6 95 0.5 CALM 0 0 0 0 1012.0 1011.8 0.0
29/03:00am 20.3 23.8 19.5 95 0.5 CALM 0 0 0 0 1012.2 1012.0 0.0
29/02:30am 20.4 23.8 19.4 94 0.6 CALM 0 0 0 0 1012.6 1012.4 0.0
29/02:00am 20.4 23.8 19.4 94 0.6 CALM 0 0 0 0 1012.9 1012.7 0.0
29/01:30am 20.4 23.8 19.4 94 0.6 CALM 0 0 0 0 1013.2 1013.0 0.0
29/01:00am 20.4 22.7 19.4 94 0.6 NNW 6 7 3 4 1013.5 1013.3 0.0
29/12:30am 20.4 22.4 19.1 92 0.8 NNW 7 9 4 5 1013.7 1013.5 0.0
29/12:00am 20.7 22.6 19.0 90 1.1 NNW 7 9 4 5 1014.1 1013.9 0.0
 
Date/Time
EDT
Temp
°C
App
Temp
°C
Dew
Point
°C
Rel
Hum
%
Delta-T
°C
Wind Press
QNH
hPa
Press
MSL
hPa
Rain since
9am
mm
Dir  Spd
km/h
Gust
km/h
Spd
kts
Gust
kts
28/11:48pm 20.7 22.6 19.0 90 1.1 NNW 7 9 4 5 1014.1 1013.9 0.0
28/11:30pm 20.8 22.8 19.1 90 1.1 NNW 7 9 4 5 1014.2 1014.0 0.0
28/11:24pm 20.9 23.1 19.2 90 1.1 NNW 6 9 3 5 1014.3 1014.1 0.0
28/11:21pm 20.9 23.1 19.2 90 1.1 NNW 6 9 3 5 1014.3 1014.1 0.0
28/11:00pm 21.0 24.5 19.5 91 1.0 CALM 0 0 0 0 1014.5 1014.3 0.0
28/10:32pm 20.9 24.2 19.0 89 1.2 CALM 0 0 0 0 1014.5 1014.3 0.0
28/10:30pm 20.9 24.2 19.2 90 1.1 CALM 0 0 0 0 1014.5 1014.3 0.0
28/10:00pm 21.0 24.3 19.1 89 1.2 CALM 0 0 0 0 1014.5 1014.3 0.0
28/09:30pm 21.0 24.2 18.8 87 1.4 CALM 0 2 0 1 1014.5 1014.3 0.0
28/09:00pm 21.1 23.2 18.9 87 1.4 W 6 9 3 5 1014.3 1014.1 0.0
28/08:30pm 21.4 23.5 18.2 82 2.0 SW 4 7 2 4 1013.8 1013.6 0.0
28/08:00pm 21.5 23.5 17.9 80 2.2 SSW 4 7 2 4 1013.5 1013.3 0.0
28/07:30pm 21.7 24.5 17.9 79 2.4 CALM 0 6 0 3 1013.4 1013.2 0.0
28/07:00pm 21.9 24.7 17.9 78 2.5 CALM 0 2 0 1 1013.2 1013.0 0.0
28/06:30pm 22.1 24.5 17.9 77 2.6 ESE 2 7 1 4 1013.1 1012.9 0.0
28/06:00pm 22.2 23.8 17.8 76 2.7 E 6 9 3 5 1012.8 1012.6 0.0
28/05:30pm 22.6 24.2 18.2 76 2.8 E 7 11 4 6 1012.6 1012.4 0.0
28/05:00pm 22.9 24.0 18.0 74 3.1 ENE 9 13 5 7 1012.4 1012.2 0.0
28/04:30pm 23.1 24.3 18.2 74 3.1 ENE 9 13 5 7 1012.3 1012.1 0.0
28/04:00pm 23.4 24.6 18.3 73 3.2 NE 9 13 5 7 1012.3 1012.1 0.0
28/03:30pm 23.4 24.5 18.1 72 3.3 E 9 13 5 7 1012.3 1012.1 0.0
28/03:00pm 23.8 25.2 17.8 69 3.8 E 7 11 4 6 1012.5 1012.3 0.0
28/02:30pm 24.4 26.4 17.9 67 4.1 SE 4 11 2 6 1012.5 1012.3 0.0
28/02:00pm 24.0 25.8 17.3 66 4.2 SSW 4 7 2 4 1013.1 1012.9 0.0
28/01:30pm 23.7 25.5 17.4 68 3.9 SE 4 9 2 5 1013.5 1013.3 0.0
28/01:02pm 23.8 26.4 17.5 68 3.9 CALM 0 0 0 0 1013.7 1013.5 0.0
28/01:00pm 23.7 26.2 17.2 67 4.0 CALM 0 0 0 0 1013.8 1013.6 0.0
28/12:43pm 23.5 24.9 17.3 68 3.8 SE 6 11 3 6 1014.0 1013.8 0.0
28/12:30pm 23.6 24.9 17.6 69 3.7 SW 7 11 4 6 1014.1 1013.9 0.0
28/12:00pm 22.9 24.0 16.7 68 3.8 ESE 6 11 3 6 1014.4 1014.2 0.0
28/11:30am 22.6 24.6 16.9 70 3.5 SE 2 7 1 4 1014.7 1014.5 0.0
28/11:00am 21.9 22.9 16.4 71 3.3 SSW 6 7 3 4 1014.9 1014.7 0.0
28/10:30am 21.4 21.7 16.1 72 3.2 SW 9 11 5 6 1014.9 1014.7 0.0
28/10:00am 21.0 21.3 16.0 73 3.0 SSW 9 11 5 6 1014.9 1014.7 0.0
28/09:30am 20.9 21.3 16.3 75 2.8 SW 9 13 5 7 1014.7 1014.5 0.0
28/09:00am 20.7 21.1 16.3 76 2.7 S 9 13 5 7 1014.6 1014.4 0.0
28/08:30am 20.4 21.3 16.6 79 2.3 S 7 13 4 7 1014.3 1014.1 0.0
28/08:00am 20.2 20.2 16.2 78 2.4 S 11 13 6 7 1014.0 1013.8 0.0
28/07:30am 20.0 19.8 16.6 81 2.1 S 13 19 7 10 1013.7 1013.5 0.0
28/07:28am 20.0 19.8 16.6 81 2.1 S 13 19 7 10 1013.7 1013.5 0.0
28/07:21am 20.1 20.0 16.9 82 1.9 S 13 19 7 10 1013.6 1013.4 0.0
28/07:02am 20.0 20.6 17.6 86 1.5 SE 11 17 6 9 1013.2 1013.0 0.0
28/07:00am 20.0 20.5 17.4 85 1.6 SE 11 17 6 9 1013.1 1012.9 0.0
28/06:30am 20.4 21.2 18.2 87 1.4 SSE 11 20 6 11 1012.7 1012.5 0.0
28/06:00am 20.9 23.0 20.1 95 0.5 SE 9 13 5 7 1012.2 1012.0 0.0
28/05:30am 20.6 23.2 20.4 99 0.1 SE 7 9 4 5 1011.7 1011.5 0.0
28/05:18am 20.2 23.5 20.0 99 0.1 NW 2 9 1 5 1011.4 1011.2 0.0
28/05:00am 20.0 23.6 19.8 99 0.1 CALM 0 0 0 0 1011.3 1011.1 0.0
28/04:30am 20.0 23.6 19.8 99 0.1 CALM 0 0 0 0 1010.9 1010.7 0.0
28/04:00am 20.0 23.6 19.8 99 0.1 CALM 0 0 0 0 1010.7 1010.5 0.0
28/03:30am 19.9 22.1 19.7 99 0.1 ESE 7 9 4 5 1010.7 1010.5 0.0
28/03:00am 20.1 21.7 19.9 99 0.1 SE 11 17 6 9 1010.4 1010.2 0.0
28/02:30am 19.9 22.7 19.7 99 0.1 ESE 4 9 2 5 1010.6 1010.4 0.0
28/02:00am 20.1 23.0 19.8 98 0.2 WNW 4 7 2 4 1010.5 1010.3 0.0
28/01:30am 20.2 22.7 19.9 98 0.2 NW 6 7 3 4 1010.6 1010.4 0.0
28/01:00am 20.5 24.1 19.7 95 0.5 CALM 0 0 0 0 1010.8 1010.6 0.0
28/12:30am 20.8 24.0 19.8 94 0.6 SE 2 6 1 3 1011.0 1010.8 0.0
28/12:00am 20.8 24.2 19.3 91 1.0 CALM 0 0 0 0 1011.4 1011.2 0.0
 
Date/Time
EDT
Temp
°C
App
Temp
°C
Dew
Point
°C
Rel
Hum
%
Delta-T
°C
Wind Press
QNH
hPa
Press
MSL
hPa
Rain since
9am
mm
Dir  Spd
km/h
Gust
km/h
Spd
kts
Gust
kts
27/11:30pm 21.5 25.0 19.6 89 1.2 CALM 0 0 0 0 1010.9 1010.7 0.0
27/11:00pm 21.7 25.2 19.6 88 1.3 CALM 0 0 0 0 1011.2 1011.0 0.0
27/10:30pm 22.0 24.0 19.9 88 1.3 S 9 13 5 7 1011.5 1011.3 0.0
27/10:00pm 22.0 24.2 19.7 87 1.5 S 7 11 4 6 1011.0 1010.8 0.0
27/09:30pm 22.1 25.1 19.3 84 1.8 SE 2 9 1 5 1010.6 1010.4 0.0
27/09:00pm 22.7 26.1 19.3 81 2.2 CALM 0 6 0 3 1010.3 1010.1 0.0
27/08:30pm 23.4 25.2 19.5 79 2.5 ENE 9 13 5 7 1009.8 1009.5 0.0
27/08:00pm 24.1 25.4 19.4 75 3.0 ENE 11 15 6 8 1009.4 1009.1 0.0
27/07:30pm 25.0 26.0 19.4 71 3.6 ENE 13 17 7 9 1009.2 1008.9 0.0
27/07:00pm 25.8 26.6 17.2 59 5.4 NNE 9 11 5 6 1009.2 1008.9 0.0
27/06:30pm 27.4 28.3 17.6 55 6.2 NNE 9 13 5 7 1009.4 1009.1 0.0
27/06:00pm 28.3 28.3 17.2 51 7.0 NNE 13 15 7 8 1009.6 1009.3 0.0
27/05:30pm 28.7 28.9 17.6 51 7.0 N 13 19 7 10 1009.7 1009.4 0.0
27/05:00pm 28.9 28.6 17.4 49 7.3 N 15 20 8 11 1010.0 1009.7 0.0
27/04:30pm 28.8 28.0 17.0 49 7.4 N 17 20 9 11 1010.4 1010.2 0.0
27/04:00pm 28.7 27.8 16.9 48 7.4 N 17 26 9 14 1010.7 1010.5 0.0
27/03:30pm 28.4 27.6 17.0 50 7.2 NNE 17 26 9 14 1011.1 1010.9 0.0
27/03:00pm 28.0 27.0 16.6 50 7.1 NNE 17 28 9 15 1011.6 1011.4 0.0
27/02:30pm 28.0 26.9 17.2 52 6.8 N 19 24 10 13 1012.2 1012.0 0.0
27/02:00pm 27.5 26.3 17.1 53 6.5 N 19 26 10 14 1012.9 1012.7 0.0
27/01:30pm 27.1 26.5 17.6 56 6.0 NNE 17 24 9 13 1013.6 1013.4 0.0
27/01:00pm 26.4 25.6 17.2 57 5.8 NNE 17 24 9 13 1014.3 1014.1 0.0
27/12:30pm 25.7 24.1 16.5 56 5.7 NNE 20 28 11 15 1014.7 1014.5 0.0
27/12:00pm 25.5 24.7 17.2 60 5.2 NNE 17 20 9 11 1015.3 1015.1 0.0
27/11:30am 24.7 25.3 17.7 65 4.4 NNE 11 19 6 10 1016.0 1015.7 0.0
27/11:00am 23.5 24.4 17.5 69 3.7 NNW 9 13 5 7 1016.3 1016.0 0.0
27/10:30am 22.0 23.7 18.4 80 2.3 N 7 11 4 6 1016.6 1016.3 0.0
27/10:00am 21.3 23.0 18.5 84 1.8 NNE 7 11 4 6 1017.0 1016.7 0.0

Latest Capital City Observations: Canberra | Sydney | Melbourne | Brisbane | Adelaide | Perth | Hobart | Darwin

Other Formats:

Comma delimited format used in spreadsheet applications
http://www.bom.gov.au/fwo/IDN60901/IDN60901.94755.axf

JavaScript Object Notation format (JSON) in row-major order
http://www.bom.gov.au/fwo/IDN60901/IDN60901.94755.json